Eurocargo Venezia — IBKS — position and weather

sailwx.info

Track history (hours):
 
Tides and Currents Weather Stations Pressure Air Temp Water Temp Dewpoint Dewpoint Depression Visibility Wind Speed Wind Dir Waves Ship Positions

Eurocargo Venezia

Last reported at 2015-Aug-30 18:15 UTC. Time now 2015-Aug-30 20:05 UTC.
Position N 41°38' E 012°11'.

Length 200 m; draft 6.9 m.

Type: Ship (hazmat cat A). MMSI: 247297200.

Date/timePositionNaut miles runAvg speedWind from/ knotsBaromVisibWave heightAir tempDewpointWater temp
2015-Aug-30 18:15N 41°38' E 012°11'1318.7
2015-Aug-30 17:32N 41°29' E 012°23'1818.3
2015-Aug-30 16:33N 41°17' E 012°41'1818.3
2015-Aug-30 15:33N 41°07' E 013°02'1818.3
2015-Aug-30 14:33N 40°57' E 013°21'1818.0
2015-Aug-30 13:34N 40°44' E 013°38'1818.5
2015-Aug-30 12:34N 40°29' E 013°52'1918.5
2015-Aug-30 11:34N 40°14' E 014°06'1818.3
2015-Aug-30 10:33N 39°59' E 014°20'1818.3
2015-Aug-30 09:33N 39°43' E 014°34'1818.2
2015-Aug-30 08:33N 39°29' E 014°47'1818.2
2015-Aug-30 07:32N 39°14' E 015°01'1818.1
2015-Aug-30 06:31N 38°59' E 015°14'1818.1
2015-Aug-30 05:33N 38°44' E 015°26'1818.4
2015-Aug-30 04:33N 38°27' E 015°37'1414.2
2015-Aug-30 03:33N 38°13' E 015°37'1616.7
2015-Aug-30 02:33N 37°58' E 015°30'1817.7
2015-Aug-30 01:33N 37°42' E 015°20'1715.1
2015-Aug-30 00:26N 37°29' E 015°06'1 0.2
2015-Aug-29 19:20N 37°29' E 015°06'0 0.0
2015-Aug-29 18:26N 37°29' E 015°06'3612.5
2015-Aug-29 15:33N 36°57' E 015°24'4319.3
2015-Aug-29 13:20N 36°21' E 014°55'1619.5
2015-Aug-29 12:32N 36°08' E 014°44'18 8.1
2015-Aug-29 10:16N 35°53' E 014°31'0 0.0
2015-Aug-29 09:28N 35°53' E 014°31'0 0.0
2015-Aug-29 08:22N 35°53' E 014°31'0 0.0
2015-Aug-29 07:10N 35°53' E 014°31'0 0.0
2015-Aug-29 05:15N 35°53' E 014°31'2 3.0
2015-Aug-29 04:33N 35°55' E 014°32'1815.7
2015-Aug-29 03:23N 36°10' E 014°45'3820.6
2015-Aug-29 01:34N 36°40' E 015°13'2220.6
2015-Aug-29 00:30N 36°60' E 015°25'2520.3
2015-Aug-28 23:16N 37°23' E 015°13'9 8.2
2015-Aug-28 22:12N 37°29' E 015°06'0 0.0
2015-Aug-28 21:30N 37°29' E 015°06'0 0.0
2015-Aug-28 11:33N 37°29' E 015°06'8 7.5
2015-Aug-28 10:28N 37°34' E 015°14'1718.6
2015-Aug-28 09:34N 37°49' E 015°23'1818.1
2015-Aug-28 08:34N 38°06' E 015°34'1514.6
2015-Aug-28 07:34N 38°19' E 015°40'1818.2
2015-Aug-28 06:33N 38°36' E 015°30'2118.9
2015-Aug-28 05:26N 38°55' E 015°18'3918.9
2015-Aug-28 03:23N 39°26' E 014°49'1618.7
2015-Aug-28 02:31N 39°39' E 014°37'1918.6
2015-Aug-28 01:31N 39°55' E 014°23'2118.9
2015-Aug-28 00:25N 40°12' E 014°07'1618.9
2015-Aug-27 23:34N 40°25' E 013°55'1918.9
2015-Aug-27 22:33N 40°41' E 013°41'1818.6
2015-Aug-27 21:34N 40°54' E 013°25'1918.7
2015-Aug-27 20:33N 41°05' E 013°04'13718.3
2015-Aug-27 13:04N 42°35' E 010°46'918.4
2015-Aug-27 12:33N 42°43' E 010°38'1716.8
2015-Aug-27 11:33N 42°58' E 010°28'1818.4
2015-Aug-27 10:33N 43°15' E 010°19'1716.6
2015-Aug-27 09:33N 43°31' E 010°13'5 5.1
2015-Aug-27 08:33N 43°35' E 010°18'0 0.0
2015-Aug-27 07:33N 43°35' E 010°18'1 0.1
2015-Aug-27 01:19N 43°34' E 010°18'6 7.4
2015-Aug-27 00:27N 43°30' E 010°12'2316.9
2015-Aug-26 23:05N 43°41' E 009°45'1018.2
2015-Aug-26 22:34N 43°48' E 009°36'1818.1
2015-Aug-26 21:33N 44°02' E 009°20'1818.0
2015-Aug-26 20:34N 44°16' E 009°03'1110.9
2015-Aug-26 19:32N 44°24' E 008°53'0 0.0
2015-Aug-26 18:32N 44°24' E 008°53'0 0.0
2015-Aug-26 17:32N 44°24' E 008°53'0 0.0
2015-Aug-26 16:32N 44°24' E 008°53'0 0.0
2015-Aug-26 15:32N 44°24' E 008°53'0 0.0
2015-Aug-26 14:32N 44°24' E 008°53'0 0.0
2015-Aug-26 13:29N 44°24' E 008°53'0 0.0
2015-Aug-26 12:29N 44°24' E 008°53'0 0.0
2015-Aug-26 11:33N 44°24' E 008°53'3 3.3
2015-Aug-26 10:33N 44°23' E 008°57'1716.8
2015-Aug-26 09:33N 44°08' E 009°08'24818.5
2015-Aug-25 20:10N 41°07' E 012°60'1219.0
2015-Aug-25 19:31N 41°00' E 013°13'2018.7
2015-Aug-25 18:28N 40°48' E 013°34'1718.8
2015-Aug-25 17:33N 40°34' E 013°47'11318.6
2015-Aug-25 11:27N 39°02' E 015°13'1718.5
2015-Aug-25 10:32N 38°48' E 015°25'1818.6
2015-Aug-25 09:33N 38°31' E 015°34'1716.8
2015-Aug-25 08:33N 38°15' E 015°40'1716.7
2015-Aug-25 07:33N 37°60' E 015°31'2119.8
2015-Aug-25 06:28N 37°41' E 015°18'1516.3
2015-Aug-25 05:32N 37°29' E 015°06'1 0.5
2015-Aug-25 03:09N 37°29' E 015°06'0 0.0
2015-Aug-25 02:32N 37°29' E 015°06'0 0.0
2015-Aug-25 01:33N 37°29' E 015°06'0 0.0
2015-Aug-25 00:33N 37°29' E 015°06'2814.1
2015-Aug-24 22:33N 37°06' E 015°24'1818.5
2015-Aug-24 21:33N 36°48' E 015°17'2020.0
2015-Aug-24 20:33N 36°31' E 015°05'2020.0
2015-Aug-24 19:33N 36°14' E 014°50'2019.9
2015-Aug-24 18:33N 35°58' E 014°36'7 5.4
2015-Aug-24 17:20N 35°53' E 014°31'0 0.0
2015-Aug-24 16:32N 35°53' E 014°31'0 0.0
2015-Aug-24 14:32N 35°53' E 014°31'0 0.0
2015-Aug-24 13:32N 35°53' E 014°31'0 0.0
2015-Aug-24 12:29N 35°53' E 014°31'0 0.0
2015-Aug-24 11:15N 35°53' E 014°31'3 3.6
2015-Aug-24 10:33N 35°55' E 014°32'9 8.9
2015-Aug-24 09:33N 36°02' E 014°39'2019.5
2015-Aug-24 08:33N 36°18' E 014°53'2019.8
2015-Aug-24 07:33N 36°34' E 015°08'2320.0
2015-Aug-24 06:23N 36°54' E 015°22'3816.5
2015-Aug-24 04:06N 37°29' E 015°06'0 0.0
2015-Aug-24 03:32N 37°29' E 015°06'0 0.0
2015-Aug-24 02:30N 37°29' E 015°06'5 1.6
2015-Aug-23 23:17N 37°31' E 015°12'1418.9
2015-Aug-23 22:33N 37°43' E 015°20'1918.9
2015-Aug-23 21:34N 38°00' E 015°30'1716.8
2015-Aug-23 20:33N 38°15' E 015°39'1616.4
2015-Aug-23 19:33N 38°29' E 015°27'1918.7
2015-Aug-23 18:32N 38°42' E 015°10'2019.0
2015-Aug-23 17:30N 38°57' E 014°53'40418.4
2015-Aug-22 19:33N 44°08' E 009°08'1817.6
2015-Aug-22 18:33N 44°23' E 008°57'3 2.5
2015-Aug-22 17:32N 44°24' E 008°53'0 0.0
2015-Aug-22 16:31N 44°24' E 008°53'0 0.0
2015-Aug-22 15:29N 44°24' E 008°53'0 0.0
2015-Aug-22 14:29N 44°24' E 008°53'0 0.0
2015-Aug-22 13:28N 44°24' E 008°53'0 0.0
2015-Aug-22 12:29N 44°24' E 008°53'0 0.0
2015-Aug-22 11:29N 44°24' E 008°53'0 0.0
2015-Aug-22 10:28N 44°24' E 008°53'0 0.0
2015-Aug-22 09:28N 44°24' E 008°53'0 0.0
2015-Aug-22 08:28N 44°24' E 008°53'2 1.8
2015-Aug-22 07:33N 44°24' E 008°55'1212.0
2015-Aug-22 06:33N 44°14' E 009°04'  
Track history (hours):
 
Tides and Currents Weather Stations Pressure Air Temp Water Temp Dewpoint Dewpoint Depression Visibility Wind Speed Wind Dir Waves Ship Positions

Eurocargo Venezia

Last reported at 2015-Aug-30 18:15 UTC. Time now 2015-Aug-30 20:05 UTC.
Position N 41°38' E 012°11'.

Length 200 m; draft 6.9 m.

Type: Ship (hazmat cat A). MMSI: 247297200.

Date/timePositionNaut miles runAvg speedWind from/ knotsBaromVisibWave heightAir tempDewpointWater temp
2015-Aug-30 18:15N 41°38' E 012°11'1318.7
2015-Aug-30 17:32N 41°29' E 012°23'1818.3
2015-Aug-30 16:33N 41°17' E 012°41'1818.3
2015-Aug-30 15:33N 41°07' E 013°02'1818.3
2015-Aug-30 14:33N 40°57' E 013°21'1818.0
2015-Aug-30 13:34N 40°44' E 013°38'1818.5
2015-Aug-30 12:34N 40°29' E 013°52'1918.5
2015-Aug-30 11:34N 40°14' E 014°06'1818.3
2015-Aug-30 10:33N 39°59' E 014°20'1818.3
2015-Aug-30 09:33N 39°43' E 014°34'1818.2
2015-Aug-30 08:33N 39°29' E 014°47'1818.2
2015-Aug-30 07:32N 39°14' E 015°01'1818.1
2015-Aug-30 06:31N 38°59' E 015°14'1818.1
2015-Aug-30 05:33N 38°44' E 015°26'1818.4
2015-Aug-30 04:33N 38°27' E 015°37'1414.2
2015-Aug-30 03:33N 38°13' E 015°37'1616.7
2015-Aug-30 02:33N 37°58' E 015°30'1817.7
2015-Aug-30 01:33N 37°42' E 015°20'1715.1
2015-Aug-30 00:26N 37°29' E 015°06'1 0.2
2015-Aug-29 19:20N 37°29' E 015°06'0 0.0
2015-Aug-29 18:26N 37°29' E 015°06'3612.5
2015-Aug-29 15:33N 36°57' E 015°24'4319.3
2015-Aug-29 13:20N 36°21' E 014°55'1619.5
2015-Aug-29 12:32N 36°08' E 014°44'18 8.1
2015-Aug-29 10:16N 35°53' E 014°31'0 0.0
2015-Aug-29 09:28N 35°53' E 014°31'0 0.0
2015-Aug-29 08:22N 35°53' E 014°31'0 0.0
2015-Aug-29 07:10N 35°53' E 014°31'0 0.0
2015-Aug-29 05:15N 35°53' E 014°31'2 3.0
2015-Aug-29 04:33N 35°55' E 014°32'1815.7
2015-Aug-29 03:23N 36°10' E 014°45'3820.6
2015-Aug-29 01:34N 36°40' E 015°13'2220.6
2015-Aug-29 00:30N 36°60' E 015°25'2520.3
2015-Aug-28 23:16N 37°23' E 015°13'9 8.2
2015-Aug-28 22:12N 37°29' E 015°06'0 0.0
2015-Aug-28 21:30N 37°29' E 015°06'0 0.0
2015-Aug-28 11:33N 37°29' E 015°06'8 7.5
2015-Aug-28 10:28N 37°34' E 015°14'1718.6
2015-Aug-28 09:34N 37°49' E 015°23'1818.1
2015-Aug-28 08:34N 38°06' E 015°34'1514.6
2015-Aug-28 07:34N 38°19' E 015°40'1818.2
2015-Aug-28 06:33N 38°36' E 015°30'2118.9
2015-Aug-28 05:26N 38°55' E 015°18'3918.9
2015-Aug-28 03:23N 39°26' E 014°49'1618.7
2015-Aug-28 02:31N 39°39' E 014°37'1918.6
2015-Aug-28 01:31N 39°55' E 014°23'2118.9
2015-Aug-28 00:25N 40°12' E 014°07'1618.9
2015-Aug-27 23:34N 40°25' E 013°55'1918.9
2015-Aug-27 22:33N 40°41' E 013°41'1818.6
2015-Aug-27 21:34N 40°54' E 013°25'1918.7
2015-Aug-27 20:33N 41°05' E 013°04'13718.3
2015-Aug-27 13:04N 42°35' E 010°46'918.4
2015-Aug-27 12:33N 42°43' E 010°38'1716.8
2015-Aug-27 11:33N 42°58' E 010°28'1818.4
2015-Aug-27 10:33N 43°15' E 010°19'1716.6
2015-Aug-27 09:33N 43°31' E 010°13'5 5.1
2015-Aug-27 08:33N 43°35' E 010°18'0 0.0
2015-Aug-27 07:33N 43°35' E 010°18'1 0.1
2015-Aug-27 01:19N 43°34' E 010°18'6 7.4
2015-Aug-27 00:27N 43°30' E 010°12'2316.9
2015-Aug-26 23:05N 43°41' E 009°45'1018.2
2015-Aug-26 22:34N 43°48' E 009°36'1818.1
2015-Aug-26 21:33N 44°02' E 009°20'1818.0
2015-Aug-26 20:34N 44°16' E 009°03'1110.9
2015-Aug-26 19:32N 44°24' E 008°53'0 0.0
2015-Aug-26 18:32N 44°24' E 008°53'0 0.0
2015-Aug-26 17:32N 44°24' E 008°53'0 0.0
2015-Aug-26 16:32N 44°24' E 008°53'0 0.0
2015-Aug-26 15:32N 44°24' E 008°53'0 0.0
2015-Aug-26 14:32N 44°24' E 008°53'0 0.0
2015-Aug-26 13:29N 44°24' E 008°53'0 0.0
2015-Aug-26 12:29N 44°24' E 008°53'0 0.0
2015-Aug-26 11:33N 44°24' E 008°53'3 3.3
2015-Aug-26 10:33N 44°23' E 008°57'1716.8
2015-Aug-26 09:33N 44°08' E 009°08'24818.5
2015-Aug-25 20:10N 41°07' E 012°60'1219.0
2015-Aug-25 19:31N 41°00' E 013°13'2018.7
2015-Aug-25 18:28N 40°48' E 013°34'1718.8
2015-Aug-25 17:33N 40°34' E 013°47'11318.6
2015-Aug-25 11:27N 39°02' E 015°13'1718.5
2015-Aug-25 10:32N 38°48' E 015°25'1818.6
2015-Aug-25 09:33N 38°31' E 015°34'1716.8
2015-Aug-25 08:33N 38°15' E 015°40'1716.7
2015-Aug-25 07:33N 37°60' E 015°31'2119.8
2015-Aug-25 06:28N 37°41' E 015°18'1516.3
2015-Aug-25 05:32N 37°29' E 015°06'1 0.5
2015-Aug-25 03:09N 37°29' E 015°06'0 0.0
2015-Aug-25 02:32N 37°29' E 015°06'0 0.0
2015-Aug-25 01:33N 37°29' E 015°06'0 0.0
2015-Aug-25 00:33N 37°29' E 015°06'2814.1
2015-Aug-24 22:33N 37°06' E 015°24'1818.5
2015-Aug-24 21:33N 36°48' E 015°17'2020.0
2015-Aug-24 20:33N 36°31' E 015°05'2020.0
2015-Aug-24 19:33N 36°14' E 014°50'2019.9
2015-Aug-24 18:33N 35°58' E 014°36'7 5.4
2015-Aug-24 17:20N 35°53' E 014°31'0 0.0
2015-Aug-24 16:32N 35°53' E 014°31'0 0.0
2015-Aug-24 14:32N 35°53' E 014°31'0 0.0
2015-Aug-24 13:32N 35°53' E 014°31'0 0.0
2015-Aug-24 12:29N 35°53' E 014°31'0 0.0
2015-Aug-24 11:15N 35°53' E 014°31'3 3.6
2015-Aug-24 10:33N 35°55' E 014°32'9 8.9
2015-Aug-24 09:33N 36°02' E 014°39'2019.5
2015-Aug-24 08:33N 36°18' E 014°53'2019.8
2015-Aug-24 07:33N 36°34' E 015°08'2320.0
2015-Aug-24 06:23N 36°54' E 015°22'3816.5
2015-Aug-24 04:06N 37°29' E 015°06'0 0.0
2015-Aug-24 03:32N 37°29' E 015°06'0 0.0
2015-Aug-24 02:30N 37°29' E 015°06'5 1.6
2015-Aug-23 23:17N 37°31' E 015°12'1418.9
2015-Aug-23 22:33N 37°43' E 015°20'1918.9
2015-Aug-23 21:34N 38°00' E 015°30'1716.8
2015-Aug-23 20:33N 38°15' E 015°39'1616.4
2015-Aug-23 19:33N 38°29' E 015°27'1918.7
2015-Aug-23 18:32N 38°42' E 015°10'2019.0
2015-Aug-23 17:30N 38°57' E 014°53'40418.4
2015-Aug-22 19:33N 44°08' E 009°08'1817.6
2015-Aug-22 18:33N 44°23' E 008°57'3 2.5
2015-Aug-22 17:32N 44°24' E 008°53'0 0.0
2015-Aug-22 16:31N 44°24' E 008°53'0 0.0
2015-Aug-22 15:29N 44°24' E 008°53'0 0.0
2015-Aug-22 14:29N 44°24' E 008°53'0 0.0
2015-Aug-22 13:28N 44°24' E 008°53'0 0.0
2015-Aug-22 12:29N 44°24' E 008°53'0 0.0
2015-Aug-22 11:29N 44°24' E 008°53'0 0.0
2015-Aug-22 10:28N 44°24' E 008°53'0 0.0
2015-Aug-22 09:28N 44°24' E 008°53'0 0.0
2015-Aug-22 08:28N 44°24' E 008°53'2 1.8
2015-Aug-22 07:33N 44°24' E 008°55'1212.0
2015-Aug-22 06:33N 44°14' E 009°04'  

Dump ship's entire track history